createdAt,value
2018-02-26T00:00:29.187Z,8.10
2018-02-26T00:01:04.326Z,7.50
2018-02-26T00:01:40.620Z,9.00
2018-02-26T00:02:16.239Z,9.00
2018-02-26T00:02:51.859Z,8.40
2018-02-26T00:03:27.203Z,8.30
2018-02-26T00:04:02.311Z,8.00
2018-02-26T00:04:38.149Z,8.20
2018-02-26T00:05:13.729Z,8.20
2018-02-26T00:05:49.417Z,7.80
2018-02-26T00:06:24.640Z,8.30
2018-02-26T00:07:00.163Z,8.10
2018-02-26T00:07:35.478Z,8.30
2018-02-26T00:08:10.574Z,8.50
2018-02-26T00:08:45.935Z,8.20
2018-02-26T00:09:21.671Z,8.20
2018-02-26T00:09:56.963Z,8.60
2018-02-26T00:10:32.390Z,8.80
2018-02-26T00:11:10.351Z,9.00
2018-02-26T00:11:45.756Z,9.50
2018-02-26T00:12:21.161Z,9.10
2018-02-26T00:12:56.569Z,8.90
2018-02-26T00:13:31.725Z,8.10
2018-02-26T00:14:07.037Z,8.40
2018-02-26T00:14:43.363Z,8.60
2018-02-26T00:15:18.767Z,8.80
2018-02-26T00:15:57.620Z,9.20
2018-02-26T00:16:34.851Z,9.60
2018-02-26T00:17:10.046Z,9.80
2018-02-26T00:17:46.577Z,8.70
2018-02-26T00:18:22.219Z,8.20
2018-02-26T00:18:57.742Z,8.60
2018-02-26T00:19:32.996Z,9.60
2018-02-26T00:20:08.296Z,9.10
2018-02-26T00:20:43.551Z,8.90
2018-02-26T00:21:19.150Z,9.10
2018-02-26T00:21:57.694Z,9.00
2018-02-26T00:22:33.013Z,8.90
2018-02-26T00:23:08.218Z,9.10
2018-02-26T00:23:43.791Z,9.20
2018-02-26T00:24:19.100Z,9.20
2018-02-26T00:24:54.121Z,8.50
2018-02-26T00:25:29.471Z,8.10
2018-02-26T00:26:08.007Z,8.10
2018-02-26T00:26:43.551Z,8.70
2018-02-26T00:27:19.963Z,9.10
2018-02-26T00:27:55.431Z,9.20
2018-02-26T00:28:30.894Z,8.70
2018-02-26T00:29:06.210Z,9.10
2018-02-26T00:29:41.551Z,9.00
2018-02-26T00:30:17.152Z,9.60
2018-02-26T00:30:53.585Z,10.10
2018-02-26T00:31:29.515Z,9.40
2018-02-26T00:32:05.320Z,9.30
2018-02-26T00:32:40.956Z,9.00
2018-02-26T00:33:16.313Z,8.90
2018-02-26T00:33:51.521Z,9.60
2018-02-26T00:34:26.495Z,9.40
2018-02-26T00:35:01.911Z,9.10
2018-02-26T00:35:37.745Z,8.90
2018-02-26T00:36:13.052Z,8.60
2018-02-26T00:36:48.286Z,8.70
2018-02-26T00:37:23.766Z,9.30
2018-02-26T00:37:59.054Z,9.80
2018-02-26T00:38:34.297Z,8.70
2018-02-26T00:39:09.615Z,8.80
2018-02-26T00:39:44.957Z,9.10
2018-02-26T00:40:20.473Z,9.00
2018-02-26T00:40:55.873Z,9.10
2018-02-26T00:41:34.184Z,8.50
2018-02-26T00:42:10.870Z,9.00
2018-02-26T00:42:46.295Z,10.20
2018-02-26T00:43:22.819Z,10.60
2018-02-26T00:43:58.480Z,9.80
2018-02-26T00:44:33.988Z,9.30
2018-02-26T00:45:13.417Z,9.10
2018-02-26T00:45:55.441Z,9.60
2018-02-26T00:46:30.812Z,9.20
2018-02-26T00:47:08.124Z,9.30
2018-02-26T00:47:43.535Z,9.60
2018-02-26T00:48:18.842Z,9.30
2018-02-26T00:48:54.337Z,9.40
2018-02-26T00:49:29.537Z,9.20
2018-02-26T00:50:04.543Z,9.60
2018-02-26T00:50:41.366Z,9.30
2018-02-26T00:51:20.209Z,9.10
2018-02-26T00:51:55.597Z,9.80
2018-02-26T00:52:30.913Z,10.30
2018-02-26T00:53:06.512Z,9.80
2018-02-26T00:53:45.427Z,9.00
2018-02-26T00:54:20.591Z,9.10
2018-02-26T00:54:55.896Z,9.30
2018-02-26T00:55:31.322Z,9.70
2018-02-26T00:56:06.320Z,11.20
2018-02-26T00:56:44.657Z,10.50
2018-02-26T00:57:20.288Z,9.70
2018-02-26T00:57:55.666Z,10.00
2018-02-26T00:58:31.086Z,10.10
2018-02-26T00:59:09.199Z,10.60
2018-02-26T00:59:44.525Z,10.70
2018-02-26T01:00:19.943Z,10.40
2018-02-26T01:00:55.540Z,9.70
2018-02-26T01:01:30.873Z,9.60
2018-02-26T01:02:06.695Z,10.20
2018-02-26T01:02:42.332Z,10.60
2018-02-26T01:03:21.725Z,10.50
2018-02-26T01:03:59.749Z,10.00
2018-02-26T01:04:37.889Z,9.90
2018-02-26T01:05:16.167Z,9.90
2018-02-26T01:05:51.610Z,9.90
2018-02-26T01:06:26.854Z,10.70
2018-02-26T01:07:02.616Z,10.40
2018-02-26T01:07:37.872Z,10.20
2018-02-26T01:08:12.959Z,10.50
2018-02-26T01:08:48.199Z,10.40
2018-02-26T01:09:23.263Z,10.70
2018-02-26T01:09:58.676Z,10.80
2018-02-26T01:10:34.996Z,10.40
2018-02-26T01:11:10.633Z,9.80
2018-02-26T01:11:46.051Z,10.00
2018-02-26T01:12:21.460Z,9.60
2018-02-26T01:12:57.155Z,9.70
2018-02-26T01:13:34.780Z,9.90
2018-02-26T01:14:12.544Z,9.50
2018-02-26T01:14:48.123Z,10.30
2018-02-26T01:15:23.445Z,10.40
2018-02-26T01:16:02.333Z,9.90
2018-02-26T01:16:39.976Z,10.10
2018-02-26T01:17:15.340Z,9.50
2018-02-26T01:17:50.649Z,9.80
2018-02-26T01:18:27.176Z,9.70
2018-02-26T01:19:02.550Z,9.80
2018-02-26T01:19:37.898Z,8.90
2018-02-26T01:20:13.187Z,9.50
2018-02-26T01:20:48.638Z,9.30
2018-02-26T01:21:26.750Z,10.00
2018-02-26T01:22:02.280Z,9.30
2018-02-26T01:22:37.716Z,9.80
2018-02-26T01:23:13.422Z,10.20
2018-02-26T01:23:49.948Z,10.50
2018-02-26T01:24:25.584Z,10.40
2018-02-26T01:25:03.264Z,9.70
2018-02-26T01:25:39.141Z,9.50
2018-02-26T01:26:15.957Z,10.60
2018-02-26T01:26:54.384Z,10.60
2018-02-26T01:27:29.815Z,9.50
2018-02-26T01:28:09.985Z,10.20
2018-02-26T01:28:45.323Z,10.50
2018-02-26T01:29:20.855Z,10.20
2018-02-26T01:29:56.106Z,9.90
2018-02-26T01:30:31.508Z,9.40
2018-02-26T01:31:11.906Z,10.10
2018-02-26T01:31:47.126Z,10.00
2018-02-26T01:32:24.464Z,10.20
2018-02-26T01:32:59.658Z,9.50
2018-02-26T01:33:39.355Z,10.00
2018-02-26T01:34:14.750Z,10.70
2018-02-26T01:34:50.099Z,9.60
2018-02-26T01:35:25.436Z,9.60
2018-02-26T01:36:00.732Z,9.60
2018-02-26T01:36:36.357Z,9.60
2018-02-26T01:37:11.541Z,9.50
2018-02-26T01:37:49.350Z,9.50
2018-02-26T01:38:25.763Z,9.60
2018-02-26T01:39:01.346Z,9.40
2018-02-26T01:39:36.824Z,9.70
2018-02-26T01:40:12.122Z,10.40
2018-02-26T01:40:50.528Z,10.60
2018-02-26T01:41:25.760Z,11.00
2018-02-26T01:42:01.052Z,11.00
2018-02-26T01:42:39.285Z,11.10
2018-02-26T01:43:14.891Z,10.40
2018-02-26T01:43:50.336Z,10.80
2018-02-26T01:44:26.037Z,10.90
2018-02-26T01:45:04.274Z,9.90
2018-02-26T01:48:18.622Z,10.50
2018-02-26T01:48:54.324Z,10.10
2018-02-26T01:49:29.718Z,10.10
2018-02-26T01:50:05.830Z,10.60
2018-02-26T01:50:44.771Z,10.40
2018-02-26T01:51:20.170Z,10.10
2018-02-26T01:51:55.347Z,10.60
2018-02-26T01:52:31.387Z,11.00
2018-02-26T01:53:06.964Z,10.70
2018-02-26T01:53:42.298Z,11.20
2018-02-26T01:54:17.483Z,10.70
2018-02-26T01:54:52.839Z,10.40
2018-02-26T01:55:28.246Z,11.00
2018-02-26T01:56:04.131Z,11.30
2018-02-26T01:56:40.138Z,10.20
2018-02-26T01:57:18.612Z,10.20
2018-02-26T01:57:53.948Z,10.50
2018-02-26T01:58:30.843Z,10.80
2018-02-26T01:59:06.210Z,11.00
2018-02-26T01:59:41.898Z,10.40
2018-02-26T02:00:17.137Z,10.50
2018-02-26T02:00:53.345Z,10.50
2018-02-26T02:01:28.834Z,11.20
2018-02-26T02:02:07.513Z,10.80
2018-02-26T02:02:44.874Z,11.00
2018-02-26T02:03:20.205Z,10.80
2018-02-26T02:03:58.581Z,10.90
2018-02-26T02:04:34.001Z,11.00
2018-02-26T02:05:14.965Z,10.70
2018-02-26T02:05:50.354Z,10.70
2018-02-26T02:06:25.584Z,11.20
2018-02-26T02:07:01.059Z,11.40
2018-02-26T02:07:36.469Z,10.90
2018-02-26T02:08:14.747Z,10.80
2018-02-26T02:08:53.305Z,11.10
2018-02-26T02:09:28.702Z,11.10
2018-02-26T02:10:07.504Z,11.30
2018-02-26T02:10:45.560Z,12.10
2018-02-26T02:11:24.161Z,11.90
2018-02-26T02:11:59.354Z,11.70
2018-02-26T02:12:37.814Z,11.90
2018-02-26T02:13:12.969Z,12.10
2018-02-26T02:13:48.403Z,11.80
2018-02-26T02:14:23.766Z,10.50
2018-02-26T02:14:59.304Z,11.90
2018-02-26T02:15:34.613Z,12.80
2018-02-26T02:16:13.055Z,13.10
2018-02-26T02:16:48.502Z,13.10
2018-02-26T02:17:23.914Z,12.40
2018-02-26T02:18:02.604Z,11.70
2018-02-26T02:18:37.930Z,11.70
2018-02-26T02:19:13.234Z,12.30
2018-02-26T02:19:48.669Z,12.40
2018-02-26T02:20:24.107Z,12.60
2018-02-26T02:20:59.519Z,13.20
2018-02-26T02:21:34.866Z,12.50
2018-02-26T02:22:10.068Z,11.80
2018-02-26T02:22:48.580Z,12.30
2018-02-26T02:23:23.930Z,12.10
2018-02-26T02:24:02.120Z,13.00
2018-02-26T02:24:37.563Z,12.70
2018-02-26T02:25:13.080Z,12.30
2018-02-26T02:25:48.840Z,12.70
2018-02-26T02:26:26.981Z,12.90
2018-02-26T02:27:02.401Z,13.80
2018-02-26T02:27:40.424Z,13.70
2018-02-26T02:28:15.742Z,13.50
2018-02-26T02:28:55.602Z,13.10
2018-02-26T02:29:31.113Z,13.50
2018-02-26T02:30:06.330Z,14.00
2018-02-26T02:30:44.190Z,14.30
2018-02-26T02:31:19.578Z,13.80
2018-02-26T02:32:01.737Z,14.40
2018-02-26T02:32:39.889Z,14.30
2018-02-26T02:33:15.423Z,13.20
2018-02-26T02:33:52.624Z,12.90
2018-02-26T02:34:28.036Z,12.70
2018-02-26T02:35:03.461Z,12.90
2018-02-26T02:35:40.123Z,13.30
2018-02-26T02:36:15.249Z,12.80
2018-02-26T02:36:52.755Z,12.90
2018-02-26T02:37:28.092Z,13.20
2018-02-26T02:38:04.218Z,13.20
2018-02-26T02:38:39.624Z,14.20
2018-02-26T02:39:14.839Z,13.20
2018-02-26T02:39:50.154Z,14.60
2018-02-26T02:40:26.910Z,15.10
2018-02-26T02:41:02.214Z,13.60
2018-02-26T02:41:38.060Z,13.90
2018-02-26T02:42:16.578Z,14.00
2018-02-26T02:42:51.749Z,13.70
2018-02-26T02:43:28.995Z,14.80
2018-02-26T02:44:05.617Z,14.80
2018-02-26T02:44:41.066Z,14.90
2018-02-26T02:45:17.408Z,15.00
2018-02-26T02:45:55.346Z,15.00
2018-02-26T02:46:30.660Z,14.10
2018-02-26T02:47:06.047Z,14.60
2018-02-26T02:47:41.869Z,14.40
2018-02-26T02:48:17.052Z,14.60
2018-02-26T02:48:52.472Z,14.60
2018-02-26T02:49:27.705Z,14.20
2018-02-26T02:50:08.019Z,14.20
2018-02-26T02:50:43.259Z,14.20
2018-02-26T02:51:21.367Z,14.80
2018-02-26T02:52:01.207Z,14.40
2018-02-26T02:52:36.453Z,13.90
2018-02-26T02:53:11.600Z,16.00
2018-02-26T02:53:50.703Z,15.20
2018-02-26T02:54:27.225Z,14.10
2018-02-26T02:55:02.328Z,14.60
2018-02-26T02:55:37.780Z,15.50
2018-02-26T02:56:13.192Z,14.70
2018-02-26T02:56:48.598Z,14.30
2018-02-26T02:57:24.219Z,14.90
2018-02-26T02:57:59.210Z,14.60
2018-02-26T02:58:36.441Z,15.50
2018-02-26T02:59:11.836Z,15.20
2018-02-26T02:59:47.445Z,14.90
2018-02-26T03:00:24.569Z,14.60
2018-02-26T03:00:59.827Z,15.90
2018-02-26T03:01:35.461Z,15.20
2018-02-26T03:02:11.042Z,14.90
2018-02-26T03:02:49.518Z,15.00
2018-02-26T03:03:29.058Z,15.10
2018-02-26T03:04:04.780Z,14.60
2018-02-26T03:04:40.294Z,14.40
2018-02-26T03:05:15.717Z,14.60
2018-02-26T03:05:54.667Z,14.10
2018-02-26T03:06:30.176Z,14.40
2018-02-26T03:07:05.462Z,15.40
2018-02-26T03:07:41.502Z,14.80
2018-02-26T03:08:21.660Z,14.60
2018-02-26T03:08:56.880Z,14.80
2018-02-26T03:09:31.987Z,14.80
2018-02-26T03:10:07.168Z,15.00
2018-02-26T03:10:46.818Z,15.00
2018-02-26T03:11:22.228Z,15.50
2018-02-26T03:11:57.410Z,15.50
2018-02-26T03:12:32.927Z,16.20
2018-02-26T03:13:10.402Z,15.80
2018-02-26T03:13:48.344Z,16.20
2018-02-26T03:14:23.674Z,16.10
2018-02-26T03:14:58.876Z,15.90
2018-02-26T03:15:34.673Z,16.00
2018-02-26T03:16:09.996Z,16.50
2018-02-26T03:16:45.546Z,16.20
2018-02-26T03:17:23.472Z,15.30
2018-02-26T03:17:58.966Z,15.40
2018-02-26T03:18:34.897Z,16.50
2018-02-26T03:19:10.209Z,16.20
2018-02-26T03:19:45.633Z,15.50
2018-02-26T03:20:20.849Z,16.10
2018-02-26T03:20:57.657Z,16.00
2018-02-26T03:21:33.300Z,16.10
2018-02-26T03:22:08.630Z,16.70
2018-02-26T03:22:43.971Z,16.10
2018-02-26T03:23:19.276Z,17.00
2018-02-26T03:23:55.997Z,17.40
2018-02-26T03:24:31.523Z,18.70
2018-02-26T03:25:07.028Z,17.80
2018-02-26T03:25:43.271Z,17.30
2018-02-26T03:26:18.579Z,17.10
2018-02-26T03:26:55.422Z,17.60
2018-02-26T03:27:30.749Z,17.90
2018-02-26T03:28:07.744Z,18.10
2018-02-26T03:28:43.538Z,17.70
2018-02-26T03:29:19.345Z,16.60
2018-02-26T03:29:54.687Z,16.00
2018-02-26T03:30:30.118Z,16.40
2018-02-26T03:31:05.533Z,17.80
2018-02-26T03:31:41.056Z,17.30
2018-02-26T03:32:16.436Z,17.70
2018-02-26T03:32:51.536Z,18.10
2018-02-26T03:33:29.179Z,17.70
2018-02-26T03:34:04.522Z,17.20
2018-02-26T03:34:40.243Z,17.00
2018-02-26T03:35:15.268Z,17.30
2018-02-26T03:35:52.997Z,16.90
2018-02-26T03:36:28.211Z,16.90
2018-02-26T03:37:05.196Z,18.40
2018-02-26T03:37:42.033Z,17.90
2018-02-26T03:38:17.612Z,17.40
2018-02-26T03:38:53.240Z,17.80
2018-02-26T03:39:28.463Z,17.70
2018-02-26T03:40:04.765Z,17.90
2018-02-26T03:40:42.618Z,16.90
2018-02-26T03:41:18.050Z,17.50
2018-02-26T03:41:56.268Z,18.80
2018-02-26T03:42:33.488Z,17.30
2018-02-26T03:43:08.907Z,16.70
2018-02-26T03:43:46.251Z,17.80
2018-02-26T03:44:21.588Z,17.40
2018-02-26T03:44:58.115Z,18.30
2018-02-26T03:45:33.437Z,17.70
2018-02-26T03:46:12.149Z,17.20
2018-02-26T03:46:48.996Z,17.00
2018-02-26T03:47:24.292Z,16.80
2018-02-26T03:48:00.088Z,17.40
2018-02-26T03:48:35.483Z,16.50
2018-02-26T03:49:12.213Z,16.90
2018-02-26T03:49:48.777Z,16.90
2018-02-26T03:50:24.153Z,16.10
2018-02-26T03:51:00.227Z,16.60
2018-02-26T03:51:35.937Z,17.60
2018-02-26T03:52:11.328Z,16.20
2018-02-26T03:52:47.035Z,16.30
2018-02-26T03:53:22.459Z,17.10
2018-02-26T03:54:00.443Z,17.50
2018-02-26T03:54:35.899Z,16.60
2018-02-26T03:55:11.598Z,18.10
2018-02-26T03:55:52.718Z,17.90
2018-02-26T03:56:30.771Z,17.20
2018-02-26T03:57:06.261Z,18.30
2018-02-26T03:57:43.894Z,16.70
2018-02-26T03:58:18.884Z,16.80
2018-02-26T03:58:54.275Z,17.60
2018-02-26T03:59:30.237Z,17.10
2018-02-26T04:00:07.147Z,16.80
2018-02-26T04:00:45.688Z,17.30
2018-02-26T04:01:21.251Z,17.20
2018-02-26T04:01:56.623Z,17.80
2018-02-26T04:02:31.839Z,17.50
2018-02-26T04:03:07.238Z,16.70
2018-02-26T04:03:42.900Z,17.70
2018-02-26T04:04:18.694Z,17.40
2018-02-26T04:04:57.263Z,17.30
2018-02-26T04:05:32.684Z,17.20
2018-02-26T04:06:08.178Z,18.00
2018-02-26T04:06:43.826Z,17.50
2018-02-26T04:07:19.251Z,17.00
2018-02-26T04:07:55.568Z,17.30
2018-02-26T04:08:31.096Z,17.10
2018-02-26T04:09:06.531Z,18.10
2018-02-26T04:09:42.645Z,18.30
2018-02-26T04:10:17.981Z,18.20
2018-02-26T04:10:53.513Z,18.60
2018-02-26T04:11:31.059Z,17.40
2018-02-26T04:12:08.662Z,17.60
2018-02-26T04:12:43.901Z,18.10
2018-02-26T04:13:19.087Z,19.00
2018-02-26T04:13:54.691Z,19.20
2018-02-26T04:14:30.306Z,17.80
2018-02-26T04:15:05.606Z,17.60
2018-02-26T04:15:41.129Z,18.10
2018-02-26T04:16:16.450Z,20.40
2018-02-26T04:16:55.215Z,19.40
2018-02-26T04:17:30.745Z,19.80
2018-02-26T04:18:06.496Z,19.20
2018-02-26T04:18:43.527Z,18.20
2018-02-26T04:19:19.119Z,17.50
2018-02-26T04:19:54.536Z,17.90
2018-02-26T04:20:29.768Z,18.50
2018-02-26T04:21:04.959Z,17.60
2018-02-26T04:21:40.996Z,18.50
2018-02-26T04:22:17.292Z,18.00
2018-02-26T04:22:52.904Z,17.20
2018-02-26T04:23:28.930Z,16.30
2018-02-26T04:24:04.453Z,17.20
2018-02-26T04:24:39.889Z,18.60
2018-02-26T04:25:15.203Z,18.20
2018-02-26T04:25:52.305Z,17.20
2018-02-26T04:26:30.043Z,17.70
2018-02-26T04:27:08.754Z,17.10
2018-02-26T04:27:44.260Z,16.80
2018-02-26T04:28:19.755Z,17.80
2018-02-26T04:28:55.090Z,17.70
2018-02-26T04:29:30.422Z,17.10
2018-02-26T04:30:07.817Z,17.00
2018-02-26T04:30:44.915Z,16.80
2018-02-26T04:31:20.520Z,17.80
2018-02-26T04:31:58.454Z,17.30
2018-02-26T04:32:34.292Z,17.60
2018-02-26T04:33:09.797Z,16.40
2018-02-26T04:33:45.031Z,17.20
2018-02-26T04:34:20.367Z,17.10
2018-02-26T04:34:55.607Z,17.40
2018-02-26T04:35:31.043Z,17.50
2018-02-26T04:36:06.459Z,17.10
2018-02-26T04:36:44.628Z,17.20
2018-02-26T04:37:22.113Z,16.80
2018-02-26T04:37:57.526Z,17.30
2018-02-26T04:38:34.244Z,17.30
2018-02-26T04:39:13.966Z,17.20
2018-02-26T04:39:52.409Z,16.70
2018-02-26T04:40:27.836Z,16.10
2018-02-26T04:41:02.927Z,17.50
2018-02-26T04:41:40.058Z,17.10
2018-02-26T04:42:15.339Z,16.00
2018-02-26T04:42:50.777Z,15.60
2018-02-26T04:43:26.356Z,16.10
2018-02-26T04:44:01.871Z,16.30
2018-02-26T04:44:37.475Z,15.30
2018-02-26T04:45:13.887Z,14.90
2018-02-26T04:45:49.194Z,15.70
2018-02-26T04:46:27.120Z,16.10
2018-02-26T04:47:02.537Z,15.10
2018-02-26T04:47:38.068Z,14.50
2018-02-26T04:48:13.517Z,15.20
2018-02-26T04:48:48.949Z,14.30
2018-02-26T04:49:28.611Z,15.00
2018-02-26T04:50:04.244Z,14.70
2018-02-26T04:50:46.187Z,14.00
2018-02-26T04:51:23.786Z,14.40
2018-02-26T04:51:59.116Z,16.10
2018-02-26T04:52:34.586Z,15.90
2018-02-26T04:53:10.224Z,14.40
2018-02-26T04:53:45.684Z,14.60
2018-02-26T04:54:21.010Z,14.90
2018-02-26T04:54:56.705Z,15.40
2018-02-26T04:55:32.243Z,15.60
2018-02-26T04:56:07.537Z,16.00
2018-02-26T04:56:42.961Z,15.50
2018-02-26T04:57:18.069Z,14.40
2018-02-26T04:57:53.582Z,13.80
2018-02-26T04:58:28.986Z,14.20
2018-02-26T04:59:04.286Z,14.40
2018-02-26T04:59:41.442Z,14.50
2018-02-26T05:00:16.761Z,14.00
2018-02-26T05:00:53.396Z,14.10
2018-02-26T05:01:29.041Z,14.00
2018-02-26T05:02:04.552Z,14.70
2018-02-26T05:02:40.368Z,14.40
2018-02-26T05:03:15.573Z,13.50
2018-02-26T05:03:51.023Z,13.30
2018-02-26T05:04:26.454Z,13.50
2018-02-26T05:05:03.854Z,13.60
2018-02-26T05:05:42.693Z,13.10
2018-02-26T05:06:20.494Z,12.80
2018-02-26T05:06:59.657Z,12.80
2018-02-26T05:07:35.024Z,13.10
2018-02-26T05:08:14.153Z,13.90
2018-02-26T05:08:49.660Z,13.40
2018-02-26T05:09:25.104Z,11.80
2018-02-26T05:10:00.387Z,11.60
2018-02-26T05:10:36.601Z,12.70
2018-02-26T05:11:12.009Z,12.70
2018-02-26T05:11:47.342Z,12.70
2018-02-26T05:12:22.802Z,13.10
2018-02-26T05:12:58.248Z,12.30
2018-02-26T05:13:33.877Z,12.30
2018-02-26T05:14:09.279Z,12.20
2018-02-26T05:14:45.700Z,12.80
2018-02-26T05:15:21.334Z,13.40
2018-02-26T05:15:59.438Z,12.30
2018-02-26T05:16:36.049Z,13.20
2018-02-26T05:17:11.379Z,11.80
2018-02-26T05:17:46.730Z,12.10
2018-02-26T05:18:23.844Z,12.50
2018-02-26T05:18:58.938Z,11.80
2018-02-26T05:19:34.968Z,11.80
2018-02-26T05:20:10.261Z,12.20
2018-02-26T05:20:46.359Z,11.20
2018-02-26T05:21:21.872Z,11.10
2018-02-26T05:21:57.263Z,10.50
2018-02-26T05:22:36.014Z,10.10
2018-02-26T05:23:11.020Z,11.30
2018-02-26T05:23:46.530Z,10.50
2018-02-26T05:24:22.155Z,10.70
2018-02-26T05:25:00.677Z,11.00
2018-02-26T05:25:36.584Z,10.40
2018-02-26T05:26:11.882Z,10.00
2018-02-26T05:26:50.421Z,9.80
2018-02-26T05:27:25.984Z,11.40
2018-02-26T05:28:01.207Z,11.00
2018-02-26T05:28:37.846Z,9.80
2018-02-26T05:29:13.190Z,10.50
2018-02-26T05:29:48.646Z,10.20
2018-02-26T05:30:24.226Z,9.40
2018-02-26T05:31:00.421Z,9.80
2018-02-26T05:31:35.774Z,10.00
2018-02-26T05:32:11.106Z,9.70
2018-02-26T05:32:48.038Z,9.80
2018-02-26T05:33:23.358Z,9.60
2018-02-26T05:33:58.894Z,9.10
2018-02-26T05:34:34.334Z,9.60
2018-02-26T05:35:09.731Z,9.60
2018-02-26T05:35:50.199Z,9.50
2018-02-26T05:36:25.724Z,8.90
2018-02-26T05:37:01.059Z,9.40
2018-02-26T05:37:37.099Z,9.00
2018-02-26T05:38:12.421Z,9.00
2018-02-26T05:38:48.056Z,8.80
2018-02-26T05:39:23.480Z,8.60
2018-02-26T05:40:01.631Z,9.30
2018-02-26T05:40:38.176Z,9.00
2018-02-26T05:41:13.504Z,9.20
2018-02-26T05:41:48.760Z,9.10
2018-02-26T05:42:24.007Z,9.20
2018-02-26T05:42:59.222Z,8.80
2018-02-26T05:43:34.585Z,9.20
2018-02-26T05:44:09.989Z,9.40
2018-02-26T05:44:45.506Z,8.80
2018-02-26T05:45:22.117Z,9.00
2018-02-26T05:45:59.231Z,8.50
2018-02-26T05:46:35.375Z,8.10
2018-02-26T05:47:13.382Z,7.90
2018-02-26T05:47:50.354Z,8.30
2018-02-26T05:48:28.704Z,9.20
2018-02-26T05:49:03.510Z,8.90
2018-02-26T05:49:42.735Z,8.20
2018-02-26T05:50:18.038Z,8.10
2018-02-26T05:50:58.379Z,7.70
2018-02-26T05:51:33.401Z,7.60
2018-02-26T05:52:08.598Z,7.70
2018-02-26T05:52:44.275Z,8.40
2018-02-26T05:53:19.871Z,8.20
2018-02-26T05:53:55.391Z,8.60
2018-02-26T05:54:30.792Z,7.90
2018-02-26T05:55:05.990Z,7.90
2018-02-26T05:55:42.838Z,7.80
2018-02-26T05:56:21.443Z,8.30
2018-02-26T05:56:59.850Z,8.20
2018-02-26T05:57:38.383Z,8.10
2018-02-26T05:58:13.485Z,7.60
2018-02-26T05:58:52.210Z,8.50
2018-02-26T05:59:27.621Z,8.60
2018-02-26T06:00:03.035Z,7.50
2018-02-26T06:00:43.110Z,8.00
2018-02-26T06:01:18.506Z,8.20
2018-02-26T06:02:00.924Z,7.60
2018-02-26T06:02:36.426Z,7.70
2018-02-26T06:03:11.698Z,8.10
2018-02-26T06:03:50.726Z,8.20
2018-02-26T06:04:26.044Z,7.50
2018-02-26T06:05:01.688Z,7.90
2018-02-26T06:05:41.111Z,8.30
2018-02-26T06:06:16.398Z,8.30
2018-02-26T06:06:55.230Z,8.20
2018-02-26T06:07:34.379Z,7.80
2018-02-26T06:08:12.397Z,7.60
2018-02-26T06:08:47.929Z,7.80
2018-02-26T06:09:23.964Z,8.00
2018-02-26T06:09:59.193Z,7.10
2018-02-26T06:10:37.916Z,7.60
2018-02-26T06:11:17.657Z,7.10
2018-02-26T06:11:53.289Z,7.20
2018-02-26T06:12:31.034Z,7.40
2018-02-26T06:13:12.674Z,7.50
2018-02-26T06:13:48.109Z,6.80
2018-02-26T06:14:25.869Z,6.40
2018-02-26T06:15:04.292Z,6.30
2018-02-26T06:15:41.706Z,6.90
2018-02-26T06:16:17.024Z,6.50
2018-02-26T06:16:52.552Z,6.10
2018-02-26T06:17:30.668Z,6.40
2018-02-26T06:18:05.869Z,6.70
2018-02-26T06:18:44.918Z,6.70
2018-02-26T06:19:20.536Z,6.30
2018-02-26T06:19:59.452Z,6.30
2018-02-26T06:20:39.120Z,5.90
2018-02-26T06:21:18.760Z,5.90
2018-02-26T06:21:53.961Z,6.70
2018-02-26T06:22:29.286Z,6.50
2018-02-26T06:23:07.704Z,6.10
2018-02-26T06:23:47.246Z,6.30
2018-02-26T06:24:22.579Z,6.50
2018-02-26T06:25:01.690Z,6.80
2018-02-26T06:25:42.648Z,6.60
2018-02-26T06:26:24.157Z,6.10
2018-02-26T06:27:06.350Z,6.30
2018-02-26T06:27:44.574Z,6.40
2018-02-26T06:28:19.848Z,6.80
2018-02-26T06:28:55.450Z,6.70
2018-02-26T06:29:34.212Z,6.80
2018-02-26T06:30:09.643Z,7.30
2018-02-26T06:30:47.180Z,6.80
2018-02-26T06:31:22.832Z,6.90
2018-02-26T06:31:58.266Z,6.90
2018-02-26T06:32:37.804Z,6.00
2018-02-26T06:33:17.398Z,6.80
2018-02-26T06:33:53.998Z,6.60
2018-02-26T06:34:29.947Z,6.40
2018-02-26T06:35:06.975Z,7.10
2018-02-26T06:35:43.444Z,7.00
2018-02-26T06:36:19.070Z,6.90
2018-02-26T06:36:56.807Z,7.00
2018-02-26T06:37:36.068Z,6.70
2018-02-26T06:38:14.784Z,7.00
2018-02-26T06:40:55.856Z,6.90
2018-02-26T06:41:31.600Z,7.30
2018-02-26T06:42:10.324Z,7.30
2018-02-26T06:42:48.135Z,6.70
2018-02-26T06:43:23.715Z,6.80
2018-02-26T06:43:59.146Z,7.00
2018-02-26T06:44:37.704Z,6.80
2018-02-26T06:45:18.202Z,6.60
2018-02-26T06:45:59.912Z,7.10
2018-02-26T06:46:41.762Z,6.70
2018-02-26T06:47:23.411Z,7.00
2018-02-26T06:48:03.935Z,6.80
2018-02-26T06:48:45.520Z,7.50
2018-02-26T06:49:26.159Z,7.00
2018-02-26T06:50:05.000Z,7.00
2018-02-26T06:50:42.648Z,7.10
2018-02-26T06:51:20.655Z,6.90
2018-02-26T06:51:58.613Z,7.40
2018-02-26T06:52:35.314Z,7.60
2018-02-26T06:53:17.234Z,6.40
2018-02-26T06:53:59.282Z,7.30
2018-02-26T06:54:35.509Z,7.50
2018-02-26T06:55:12.096Z,6.60
2018-02-26T06:55:53.634Z,7.20
2018-02-26T06:56:29.251Z,7.10
2018-02-26T06:57:04.467Z,6.70
2018-02-26T06:57:39.892Z,6.90
2018-02-26T06:58:15.142Z,6.40
2018-02-26T06:58:50.636Z,5.90
2018-02-26T06:59:25.774Z,6.00
2018-02-26T07:00:01.334Z,6.60
2018-02-26T07:00:39.659Z,7.10
2018-02-26T07:01:15.058Z,7.00
2018-02-26T07:01:50.212Z,6.70
2018-02-26T07:02:25.645Z,6.80
2018-02-26T07:03:01.770Z,7.20
2018-02-26T07:03:37.538Z,7.00
2018-02-26T07:04:12.861Z,6.20
2018-02-26T07:04:48.291Z,6.30
2018-02-26T07:05:23.726Z,6.90
2018-02-26T07:06:05.438Z,6.90
2018-02-26T07:06:40.772Z,6.70
2018-02-26T07:07:16.963Z,6.50
2018-02-26T07:07:52.183Z,6.50
2018-02-26T07:08:27.721Z,6.00
2018-02-26T07:09:03.105Z,6.50
2018-02-26T07:09:38.842Z,7.20
2018-02-26T07:10:14.434Z,6.60
2018-02-26T07:10:49.784Z,6.10
2018-02-26T07:11:25.338Z,6.10
2018-02-26T07:12:01.148Z,6.50
2018-02-26T07:12:36.390Z,5.60
2018-02-26T07:13:11.691Z,5.90
2018-02-26T07:13:47.048Z,6.50
2018-02-26T07:14:22.582Z,6.40
2018-02-26T07:14:57.994Z,6.10
2018-02-26T07:15:33.339Z,6.40
2018-02-26T07:16:08.845Z,6.50
2018-02-26T07:16:44.871Z,6.30
2018-02-26T07:17:20.186Z,5.90
2018-02-26T07:17:55.743Z,6.70
2018-02-26T07:18:31.634Z,6.60
2018-02-26T07:19:07.134Z,6.10
2018-02-26T07:19:42.394Z,6.10
2018-02-26T07:20:17.736Z,6.90
2018-02-26T07:20:54.766Z,6.50
2018-02-26T07:21:30.077Z,6.10
2018-02-26T07:22:05.495Z,6.00
2018-02-26T07:22:42.316Z,6.70
2018-02-26T07:23:17.334Z,6.30
2018-02-26T07:23:52.730Z,6.10
2018-02-26T07:24:28.308Z,6.50
2018-02-26T07:25:03.883Z,6.90
2018-02-26T07:25:40.550Z,6.80
2018-02-26T07:26:15.993Z,6.30
2018-02-26T07:26:51.361Z,6.20
2018-02-26T07:27:26.883Z,6.20
2018-02-26T07:28:02.519Z,6.00
2018-02-26T07:28:37.964Z,6.30
2018-02-26T07:29:13.040Z,6.50
2018-02-26T07:29:48.580Z,6.30
2018-02-26T07:30:24.101Z,6.40
2018-02-26T07:31:00.220Z,6.00
2018-02-26T07:31:35.896Z,6.00
2018-02-26T07:32:11.377Z,5.90
2018-02-26T07:32:46.638Z,6.00
2018-02-26T07:33:23.016Z,6.00
2018-02-26T07:33:58.339Z,5.90
2018-02-26T07:34:33.803Z,6.80
2018-02-26T07:35:09.088Z,6.90
2018-02-26T07:35:46.434Z,6.50
2018-02-26T07:36:21.797Z,6.30
2018-02-26T07:36:56.940Z,5.90
2018-02-26T07:37:32.460Z,5.80
2018-02-26T07:38:07.852Z,5.80
2018-02-26T07:38:43.323Z,5.60
2018-02-26T07:39:18.924Z,5.80
2018-02-26T07:39:54.289Z,5.90
2018-02-26T07:40:29.549Z,6.30
2018-02-26T07:41:04.880Z,6.20
2018-02-26T07:41:40.345Z,6.60
2018-02-26T07:42:15.447Z,6.80
2018-02-26T07:42:51.104Z,6.40
2018-02-26T07:43:26.332Z,6.30
2018-02-26T07:44:01.657Z,6.60
2018-02-26T07:44:37.383Z,6.70
2018-02-26T07:45:12.482Z,5.90
2018-02-26T07:45:50.206Z,6.30
2018-02-26T07:46:28.765Z,7.00
2018-02-26T07:47:03.883Z,6.40
2018-02-26T07:47:39.511Z,5.60
2018-02-26T07:48:15.421Z,6.00
2018-02-26T07:48:50.701Z,6.60
2018-02-26T07:49:29.258Z,6.70
2018-02-26T07:50:07.081Z,6.20
2018-02-26T07:50:46.127Z,6.00
2018-02-26T07:51:21.257Z,6.40
2018-02-26T07:51:56.680Z,6.10
2018-02-26T07:52:32.047Z,6.30
2018-02-26T07:53:07.333Z,5.80
2018-02-26T07:53:42.647Z,6.50
2018-02-26T07:54:25.525Z,6.60
2018-02-26T07:55:03.701Z,5.70
2018-02-26T07:55:44.292Z,5.90
2018-02-26T07:56:22.544Z,6.00
2018-02-26T07:57:01.767Z,6.10
2018-02-26T07:57:39.784Z,6.30
2018-02-26T07:58:16.902Z,6.10
2018-02-26T07:58:52.156Z,5.90
2018-02-26T07:59:28.024Z,5.70
2018-02-26T08:00:03.522Z,5.60